Time;durP1;ratioP1;P1;durP2;ratioP2;P2;SDS_P1;SDS_P2;PMS_P1;PMS_P2;Temp;Humidity;BMP_temperature;BMP_pressure;BME280_temperature;BME280_humidity;BME280_pressure;Samples;Min_cycle;Max_cycle;Signal;HPM_P1;HPM_P2
2022/06/28 06:13:19;;;;;;;;;2.00;1.00;;;;;20.37;48.92;101812.41;5043624;27;45808;-87
2022/06/28 06:15:45;;;;;;;;;2.00;2.00;;;;;20.46;49.35;101808.97;5043736;28;45412;-83
2022/06/28 06:18:10;;;;;;;;;1.00;1.00;;;;;20.65;48.60;101807.50;5045576;28;45590;-85
2022/06/28 06:20:35;;;;;;;;;1.67;1.67;;;;;20.88;49.13;101802.97;5044897;28;49956;-81
2022/06/28 06:23:01;;;;;;;;;3.00;3.00;;;;;21.14;48.96;101804.53;5042253;28;46009;-82
2022/06/28 06:25:26;;;;;;;;;1.00;1.00;;;;;21.38;47.97;101803.47;5044933;28;45763;-88
2022/06/28 06:27:51;;;;;;;;;3.00;1.33;;;;;21.65;47.55;101796.69;5043341;28;45440;-87
2022/06/28 06:30:17;;;;;;;;;1.00;1.00;;;;;21.88;47.56;101799.31;5038349;28;45582;-84
2022/06/28 06:32:43;;;;;;;;;2.00;2.00;;;;;22.13;46.55;101797.19;5038889;28;46316;-86
2022/06/28 06:35:09;;;;;;;;;1.00;1.00;;;;;22.36;46.75;101800.59;5043614;28;45505;-84
2022/06/28 06:37:34;;;;;;;;;1.67;1.67;;;;;22.56;46.19;101798.03;5043315;28;45507;-85
2022/06/28 06:39:59;;;;;;;;;1.00;1.00;;;;;22.71;46.10;101795.78;5044606;28;45509;-84
2022/06/28 06:42:25;;;;;;;;;1.00;1.00;;;;;22.88;45.44;101796.97;5043501;28;46327;-84
2022/06/28 06:44:50;;;;;;;;;2.33;2.33;;;;;23.03;45.25;101787.47;5042269;28;46608;-86
2022/06/28 06:47:15;;;;;;;;;1.00;1.00;;;;;23.19;46.17;101790.59;5041685;28;45538;-92
2022/06/28 06:49:41;;;;;;;;;1.67;1.67;;;;;23.29;44.79;101786.03;5039724;28;45807;-83
2022/06/28 06:52:06;;;;;;;;;0.67;0.67;;;;;23.37;44.76;101783.53;5045557;28;46177;-83
2022/06/28 06:54:32;;;;;;;;;2.00;2.00;;;;;23.50;45.07;101793.22;5043062;28;45566;-82
2022/06/28 06:56:57;;;;;;;;;3.67;2.33;;;;;23.64;44.54;101783.78;5046245;28;45617;-83
2022/06/28 06:59:22;;;;;;;;;1.33;1.00;;;;;23.73;44.75;101782.94;5037871;28;45660;-78
2022/06/28 07:01:48;;;;;;;;;2.00;2.00;;;;;23.86;44.37;101776.38;5037096;28;46040;-81
2022/06/28 07:04:15;;;;;;;;;1.67;1.67;;;;;24.02;44.70;101779.31;5043779;28;45768;-82
2022/06/28 07:06:40;;;;;;;;;2.00;1.67;;;;;24.18;44.83;101773.31;5041636;28;45439;-83
2022/06/28 07:09:06;;;;;;;;;1.00;1.00;;;;;24.39;44.38;101776.81;5042516;28;45492;-82
2022/06/28 07:11:32;;;;;;;;;1.67;1.67;;;;;24.57;44.34;101774.97;5032879;28;47010;-83
2022/06/28 07:13:58;;;;;;;;;2.00;2.00;;;;;24.78;44.34;101770.31;5042078;28;45477;-82
2022/06/28 07:16:23;;;;;;;;;3.00;1.33;;;;;24.94;44.35;101767.81;5042115;28;45658;-81
2022/06/28 07:18:48;;;;;;;;;1.00;1.00;;;;;25.11;43.96;101765.25;5046972;28;45485;-81
2022/06/28 07:21:13;;;;;;;;;3.00;1.00;;;;;25.25;43.68;101762.00;5045040;28;49020;-82
2022/06/28 07:23:40;;;;;;;;;1.00;1.00;;;;;25.41;43.29;101765.03;5026517;28;45546;-83
2022/06/28 07:26:05;;;;;;;;;1.00;1.00;;;;;25.54;43.93;101757.28;5020648;28;45763;-77
2022/06/28 07:28:30;;;;;;;;;3.00;2.00;;;;;25.67;41.94;101762.38;5027693;28;45498;-77
2022/06/28 07:30:56;;;;;;;;;2.00;2.00;;;;;25.73;41.79;101760.88;5032375;28;46417;-77
2022/06/28 07:33:21;;;;;;;;;1.00;1.00;;;;;25.75;41.67;101751.53;5020270;28;45483;-80
2022/06/28 07:35:46;;;;;;;;;2.00;2.00;;;;;25.76;42.04;101755.13;5027545;28;46076;-77
2022/06/28 07:38:12;;;;;;;;;1.00;1.00;;;;;25.76;42.05;101744.25;5030326;28;45741;-77
2022/06/28 07:40:38;;;;;;;;;2.00;2.00;;;;;25.85;42.24;101750.59;5031177;28;45467;-78
2022/06/28 07:43:04;;;;;;;;;1.00;1.00;;;;;25.90;42.33;101745.50;5031011;28;45382;-78
2022/06/28 07:45:29;;;;;;;;;1.00;1.00;;;;;25.96;42.13;101744.03;5029141;28;45500;-79
2022/06/28 07:47:55;;;;;;;;;2.00;1.00;;;;;26.03;41.95;101745.94;5029764;28;45365;-79
2022/06/28 07:53:07;;;;;;;;;2.00;2.00;;;;;26.15;42.10;101740.22;5031156;28;45679;-81
2022/06/28 07:55:33;;;;;;;;;3.67;3.00;;;;;26.20;41.96;101742.47;5030816;28;45381;-80
2022/06/28 07:57:59;;;;;;;;;1.00;1.00;;;;;26.24;41.74;101743.84;5026922;28;45496;-80
2022/06/28 08:00:25;;;;;;;;;1.00;1.00;;;;;26.29;42.24;101734.19;5028504;28;46720;-79
2022/06/28 08:02:51;;;;;;;;;2.00;1.00;;;;;26.36;42.27;101736.28;5029666;28;45477;-80
2022/06/28 08:05:17;;;;;;;;;1.67;1.67;;;;;26.41;41.93;101734.75;5023792;28;45691;-77
2022/06/28 08:07:42;;;;;;;;;2.00;2.00;;;;;26.45;41.66;101729.84;5029423;28;46473;-77
2022/06/28 08:10:09;;;;;;;;;3.00;1.00;;;;;26.50;41.76;101726.63;5020848;28;46001;-77
2022/06/28 08:12:35;;;;;;;;;1.00;1.00;;;;;26.53;41.63;101726.28;5025075;28;45781;-78
2022/06/28 08:15:00;;;;;;;;;2.33;2.33;;;;;26.55;41.74;101719.66;5029086;28;45583;-80
2022/06/28 08:17:25;;;;;;;;;2.67;2.00;;;;;26.60;42.01;101716.44;5027630;28;45627;-79
2022/06/28 08:19:51;;;;;;;;;3.33;2.33;;;;;26.63;42.10;101716.13;5026157;28;45459;-79
2022/06/28 08:22:17;;;;;;;;;2.00;2.00;;;;;26.65;41.67;101714.06;5031877;28;45474;-77
2022/06/28 08:24:42;;;;;;;;;2.00;2.00;;;;;26.69;42.02;101711.88;5027013;28;45511;-81
2022/06/28 08:27:08;;;;;;;;;2.00;2.00;;;;;26.73;42.25;101706.94;5027674;28;45721;-80
2022/06/28 08:29:34;;;;;;;;;1.00;1.00;;;;;26.75;42.11;101696.72;5025567;28;46815;-80
2022/06/28 08:32:00;;;;;;;;;1.33;1.33;;;;;26.78;41.95;101696.41;5028052;28;45543;-80
2022/06/28 08:34:26;;;;;;;;;2.00;1.00;;;;;26.81;42.21;101691.47;5027015;28;45537;-80
2022/06/28 08:36:51;;;;;;;;;2.00;2.00;;;;;26.85;42.15;101691.97;5027493;28;45900;-75
2022/06/28 08:39:17;;;;;;;;;2.00;2.00;;;;;26.89;40.41;101690.63;5024614;28;49802;-76
2022/06/28 08:41:43;;;;;;;;;1.00;1.00;;;;;26.91;39.51;101687.72;5026591;28;45519;-76
2022/06/28 08:44:10;;;;;;;;;2.00;2.00;;;;;26.96;39.33;101682.66;5028178;28;45518;-75
2022/06/28 08:46:36;;;;;;;;;1.67;1.67;;;;;26.98;39.02;101677.91;5022714;28;45451;-76
2022/06/28 08:49:04;;;;;;;;;1.67;1.67;;;;;26.98;38.31;101679.78;5029780;28;46119;-76
2022/06/28 08:51:32;;;;;;;;;1.00;1.00;;;;;26.97;38.60;101676.19;5025553;28;45846;-77
2022/06/28 08:54:00;;;;;;;;;2.00;2.00;;;;;26.92;39.18;101671.22;5028671;28;45383;-78
2022/06/28 08:56:26;;;;;;;;;2.00;2.00;;;;;26.90;38.97;101661.53;5025975;28;45532;-77
2022/06/28 08:58:52;;;;;;;;;2.00;2.00;;;;;26.88;39.05;101652.66;5026313;28;46052;-77
2022/06/28 09:01:17;;;;;;;;;1.67;1.67;;;;;26.89;39.01;101654.38;5028155;28;45424;-77
2022/06/28 09:03:43;;;;;;;;;2.00;2.00;;;;;26.90;39.61;101653.34;5029182;28;45885;-78
2022/06/28 09:06:09;;;;;;;;;2.00;2.00;;;;;26.91;39.70;101652.31;5027163;28;45425;-79
2022/06/28 09:08:35;;;;;;;;;2.00;2.00;;;;;26.92;39.35;101646.72;5027881;28;45742;-79
2022/06/28 09:11:00;;;;;;;;;1.00;1.00;;;;;26.95;40.11;101651.88;5024041;28;45478;-77
2022/06/28 09:13:26;;;;;;;;;1.00;1.00;;;;;26.99;39.70;101643.34;5028632;28;45687;-76
2022/06/28 09:15:55;;;;;;;;;2.33;2.33;;;;;27.02;40.13;101645.72;5025839;28;45817;-78
2022/06/28 09:18:24;;;;;;;;;2.00;2.00;;;;;27.06;40.12;101633.47;5028359;28;48693;-77
2022/06/28 09:20:52;;;;;;;;;2.00;2.00;;;;;27.13;39.98;101633.63;5030515;28;45316;-77
2022/06/28 09:23:38;;;;;;;;;1.67;1.33;;;;;27.17;39.93;101637.69;5028631;28;46260;-78
2022/06/28 09:26:06;;;;;;;;;2.00;2.00;;;;;27.21;39.66;101630.88;5025804;28;45613;-83
2022/06/28 09:28:34;;;;;;;;;3.00;2.00;;;;;27.24;39.56;101627.81;5028344;28;45824;-82
2022/06/28 09:31:15;;;;;;;;;4.00;2.00;;;;;27.27;40.22;101623.91;5029462;28;46288;-81
2022/06/28 09:33:43;;;;;;;;;1.00;1.00;;;;;27.32;39.60;101616.91;5025088;28;45484;-84
2022/06/28 09:36:13;;;;;;;;;2.33;2.33;;;;;27.34;39.28;101622.19;5021450;28;45449;-76
2022/06/28 09:38:39;;;;;;;;;3.00;2.33;;;;;27.34;39.84;101620.31;5028633;28;46083;-76
2022/06/28 09:41:04;;;;;;;;;2.00;2.00;;;;;27.36;39.68;101614.69;5029848;28;45416;-76
2022/06/28 09:43:34;;;;;;;;;2.00;1.00;;;;;27.39;39.48;101624.38;5027172;28;45478;-77
2022/06/28 09:46:04;;;;;;;;;2.00;2.00;;;;;27.40;39.59;101601.56;5029883;28;45741;-78
2022/06/28 09:48:37;;;;;;;;;2.00;2.00;;;;;27.39;39.49;101608.91;5020668;28;45644;-77
2022/06/28 09:51:03;;;;;;;;;2.33;2.33;;;;;27.39;40.19;101605.31;5017332;28;45514;-79
2022/06/28 09:53:30;;;;;;;;;2.00;2.00;;;;;27.39;39.62;101605.31;5018277;28;46035;-79
2022/06/28 09:56:03;;;;;;;;;2.00;1.00;;;;;27.43;37.34;101602.03;5018068;28;45558;-80
2022/06/28 09:58:30;;;;;;;;;2.00;1.00;;;;;27.47;36.42;101599.84;5025223;28;45980;-80
2022/06/28 10:00:56;;;;;;;;;1.67;1.67;;;;;27.47;37.36;101597.94;5031286;28;45484;-77
2022/06/28 10:03:21;;;;;;;;;1.33;1.33;;;;;27.43;36.71;101601.22;5017651;28;45916;-78
2022/06/28 10:05:47;;;;;;;;;1.67;1.67;;;;;27.39;36.25;101588.94;5020264;28;48153;-77
2022/06/28 10:08:12;;;;;;;;;2.00;2.00;;;;;27.39;36.37;101592.53;5018516;28;46203;-77
2022/06/28 10:10:40;;;;;;;;;3.00;2.00;;;;;27.41;36.77;101579.56;5019529;28;45686;-77
2022/06/28 10:16:10;;;;;;;;;1.00;1.00;;;;;27.44;36.42;101573.78;5019446;28;45924;-77
2022/06/28 10:18:38;;;;;;;;;2.00;2.00;;;;;27.44;35.88;101562.88;5018050;28;46478;-77
2022/06/28 10:21:03;;;;;;;;;2.00;2.00;;;;;27.41;35.88;101554.19;5017984;28;45713;-77
2022/06/28 10:23:37;;;;;;;;;1.67;1.67;;;;;27.41;35.83;101560.50;5017371;28;45647;-77
2022/06/28 10:26:09;;;;;;;;;2.00;2.00;;;;;27.41;35.85;101556.91;5019864;28;45697;-77
2022/06/28 10:28:37;;;;;;;;;2.00;2.00;;;;;27.39;35.73;101551.66;5017046;28;46342;-76
2022/06/28 10:31:20;;;;;;;;;1.33;1.33;;;;;27.38;35.56;101549.94;5020004;28;45634;-77
2022/06/28 10:33:46;;;;;;;;;1.00;1.00;;;;;27.35;35.84;101556.59;5014795;28;45792;-77
2022/06/28 10:36:13;;;;;;;;;1.00;1.00;;;;;27.33;35.95;101544.16;5016975;28;45542;-77
2022/06/28 10:39:01;;;;;;;;;1.00;1.00;;;;;27.31;35.96;101540.78;5020296;28;47065;-76
2022/06/28 10:41:52;;;;;;;;;2.00;2.00;;;;;27.28;35.56;101541.13;5022502;28;45525;-76
2022/06/28 10:44:19;;;;;;;;;4.00;2.00;;;;;27.23;35.69;101536.19;5025680;28;45442;-77
2022/06/28 10:47:07;;;;;;;;;1.00;1.00;;;;;27.22;35.42;101543.50;5034539;28;45494;-77
2022/06/28 10:49:54;;;;;;;;;1.00;1.00;;;;;27.21;35.77;101540.94;5030108;28;46165;-76
2022/06/28 10:52:38;;;;;;;;;1.00;1.00;;;;;27.22;35.59;101543.50;5019656;28;45626;-76
2022/06/28 10:55:03;;;;;;;;;1.00;1.00;;;;;27.23;35.44;101544.38;5024895;28;45381;-76
2022/06/28 10:57:40;;;;;;;;;1.00;1.00;;;;;27.20;36.00;101531.94;5024400;28;45463;-77
2022/06/28 11:00:07;;;;;;;;;2.00;2.00;;;;;27.20;35.36;101533.81;5022204;28;47168;-76
2022/06/28 11:02:51;;;;;;;;;2.00;2.00;;;;;27.19;35.01;101527.53;5030271;28;45593;-76
2022/06/28 11:05:18;;;;;;;;;1.00;1.00;;;;;27.19;35.73;101530.25;5019065;28;45614;-76
2022/06/28 11:08:04;;;;;;;;;2.00;1.00;;;;;27.15;35.75;101528.03;5017119;28;46122;-76
2022/06/28 11:10:30;;;;;;;;;1.00;1.00;;;;;27.12;35.53;101521.06;5021304;28;46207;-75
2022/06/28 11:13:19;;;;;;;;;1.33;1.33;;;;;27.14;35.05;101518.16;5022905;28;45784;-75
2022/06/28 11:15:44;;;;;;;;;1.00;1.00;;;;;27.13;36.51;101514.59;5020685;28;45529;-75
2022/06/28 11:18:20;;;;;;;;;1.00;1.00;;;;;27.11;35.81;101508.47;5022436;28;45517;-75
2022/06/28 11:20:45;;;;;;;;;1.33;1.33;;;;;27.13;35.98;101513.75;5018531;28;48459;-75
2022/06/28 11:23:28;;;;;;;;;1.00;1.00;;;;;27.12;36.26;101520.19;5020618;28;47177;-79
2022/06/28 11:28:59;;;;;;;;;1.67;1.67;;;;;27.18;35.27;101514.06;5024930;28;45629;-78
2022/06/28 11:31:25;;;;;;;;;2.00;2.00;;;;;27.21;35.03;101516.44;5033172;28;46229;-78
2022/06/28 11:33:51;;;;;;;;;4.00;1.33;;;;;27.23;34.46;101507.06;5028074;28;45436;-78
2022/06/28 11:36:30;;;;;;;;;1.00;1.00;;;;;27.24;34.79;101510.63;5027661;28;45493;-78
2022/06/28 11:39:18;;;;;;;;;1.00;1.00;;;;;27.28;34.46;101508.41;5032371;28;45400;-77
2022/06/28 11:41:53;;;;;;;;;4.00;2.00;;;;;27.29;35.20;101504.66;5021584;28;47166;-79
2022/06/28 11:44:19;;;;;;;;;3.00;3.00;;;;;27.29;34.52;101496.47;5024189;28;45464;-81
2022/06/28 11:46:46;;;;;;;;;2.00;2.00;;;;;27.33;34.20;101489.66;5028604;28;45404;-80
2022/06/28 11:49:11;;;;;;;;;1.00;1.00;;;;;27.35;34.78;101493.91;5032004;28;45457;-77
2022/06/28 11:51:41;;;;;;;;;3.00;3.00;;;;;27.34;35.12;101494.09;5031208;28;45456;-76
2022/06/28 11:54:08;;;;;;;;;2.00;2.00;;;;;27.35;35.30;101495.78;5031505;28;45424;-77
2022/06/28 11:56:44;;;;;;;;;1.67;1.67;;;;;27.36;35.81;101492.91;5029596;28;45494;-78
2022/06/28 11:59:10;;;;;;;;;3.00;2.00;;;;;27.39;36.44;101491.69;5029930;28;45604;-78
2022/06/28 12:01:40;;;;;;;;;2.00;0.67;;;;;27.40;36.08;101489.78;5034019;28;46024;-78
2022/06/28 12:04:06;;;;;;;;;1.00;1.00;;;;;27.41;36.33;101483.31;5031810;28;45451;-78
2022/06/28 12:06:35;;;;;;;;;1.00;0.00;;;;;27.42;36.19;101479.59;5034185;28;45457;-78
2022/06/28 12:09:02;;;;;;;;;3.33;3.33;;;;;27.44;36.45;101478.38;5027537;28;45465;-80
2022/06/28 12:11:36;;;;;;;;;2.00;2.00;;;;;27.44;36.35;101483.81;5034401;28;45955;-78
2022/06/28 12:14:11;;;;;;;;;3.00;1.00;;;;;27.43;36.42;101457.56;5032747;28;45598;-77
2022/06/28 12:16:38;;;;;;;;;2.00;2.00;;;;;27.44;37.08;101461.16;5032974;28;45530;-76
2022/06/28 12:19:06;;;;;;;;;0.33;0.33;;;;;27.47;37.25;101460.81;5029468;28;45550;-76
2022/06/28 12:21:32;;;;;;;;;1.00;1.00;;;;;27.50;36.83;101463.16;5031936;28;45661;-77
2022/06/28 12:23:59;;;;;;;;;2.33;1.00;;;;;27.53;37.57;101459.22;5025218;28;45467;-77
2022/06/28 12:26:56;;;;;;;;;3.00;1.33;;;;;27.56;37.50;101467.06;5030798;28;45435;-77
2022/06/28 12:29:22;;;;;;;;;1.67;1.67;;;;;27.57;36.87;101457.84;4994640;28;45529;-77
2022/06/28 12:31:47;;;;;;;;;1.67;1.67;;;;;27.54;37.53;101442.69;5007932;28;49854;-75
2022/06/28 12:34:15;;;;;;;;;2.00;0.67;;;;;27.55;37.67;101440.84;4999316;28;45472;-75
2022/06/28 12:36:40;;;;;;;;;1.00;1.00;;;;;27.54;37.10;101452.78;5010077;28;45676;-75
2022/06/28 12:39:05;;;;;;;;;3.00;1.00;;;;;27.53;37.90;101446.47;5006895;28;45676;-75
2022/06/28 12:41:31;;;;;;;;;2.33;1.00;;;;;27.53;37.63;101443.72;5005151;28;63458;-76
2022/06/28 12:43:56;;;;;;;;;2.00;2.00;;;;;27.53;37.36;101448.31;5002341;28;54620;-79
2022/06/28 12:46:22;;;;;;;;;2.00;2.00;;;;;27.54;37.56;101439.16;4996321;28;45572;-76
2022/06/28 12:48:47;;;;;;;;;1.00;1.00;;;;;27.53;37.76;101434.69;4996256;28;47036;-78
2022/06/28 12:51:12;;;;;;;;;1.00;1.00;;;;;27.52;37.60;101436.59;4997848;28;46281;-77
2022/06/28 12:53:38;;;;;;;;;0.67;0.67;;;;;27.55;37.38;101430.75;4996277;28;45838;-77
2022/06/28 12:56:03;;;;;;;;;2.00;2.00;;;;;27.57;37.41;101436.03;4996950;28;45595;-77
2022/06/28 12:58:29;;;;;;;;;2.00;2.00;;;;;27.58;38.23;101424.97;4997427;28;46195;-77
2022/06/28 13:00:54;;;;;;;;;1.00;1.00;;;;;27.57;38.03;101412.38;5011176;28;47985;-78
2022/06/28 13:03:20;;;;;;;;;1.00;1.00;;;;;27.59;38.06;101420.38;5008026;28;45637;-78
2022/06/28 13:05:45;;;;;;;;;1.00;1.00;;;;;27.59;37.78;101415.75;5023777;28;45516;-76
2022/06/28 13:08:10;;;;;;;;;1.00;1.00;;;;;27.62;37.62;101414.56;5029767;28;45491;-75
2022/06/28 13:10:36;;;;;;;;;1.00;1.00;;;;;27.64;37.90;101415.25;5028210;28;46909;-75
2022/06/28 13:13:01;;;;;;;;;2.00;2.00;;;;;27.65;38.21;101407.91;5033075;28;45525;-75
2022/06/28 13:15:27;;;;;;;;;1.67;1.67;;;;;27.67;37.99;101416.78;5027469;28;47638;-76
2022/06/28 13:17:52;;;;;;;;;2.00;2.00;;;;;27.66;37.67;101413.19;5025401;28;45663;-74
2022/06/28 13:20:18;;;;;;;;;0.67;0.67;;;;;27.63;37.90;101399.94;5026592;28;45708;-75
2022/06/28 13:22:45;;;;;;;;;2.00;2.00;;;;;27.62;37.69;101399.06;5033396;28;45607;-75
2022/06/28 13:25:11;;;;;;;;;1.00;1.00;;;;;27.61;37.93;101396.53;5027934;28;45493;-76
2022/06/28 13:27:37;;;;;;;;;4.67;1.67;;;;;27.61;37.37;101388.34;5030522;28;45724;-78
2022/06/28 13:30:04;;;;;;;;;1.67;1.67;;;;;27.61;37.88;101391.94;5032741;28;46153;-77
2022/06/28 13:32:29;;;;;;;;;1.00;1.00;;;;;27.62;37.67;101387.31;5029827;28;45277;-75
2022/06/28 13:34:54;;;;;;;;;1.00;1.00;;;;;27.61;37.68;101374.69;5018429;28;45438;-76
2022/06/28 13:37:21;;;;;;;;;1.00;1.00;;;;;27.61;37.01;101389.19;5032267;28;45436;-76
2022/06/28 13:39:46;;;;;;;;;1.00;1.00;;;;;27.61;37.58;101386.47;5025616;28;47498;-76
2022/06/28 13:42:12;;;;;;;;;1.33;0.33;;;;;27.59;37.23;101372.13;5032079;28;45676;-76
2022/06/28 13:44:37;;;;;;;;;1.00;1.00;;;;;27.60;37.46;101371.16;5027885;28;45574;-76
2022/06/28 13:47:03;;;;;;;;;2.00;2.00;;;;;27.64;37.22;101374.34;5031968;28;45492;-76
2022/06/28 13:49:28;;;;;;;;;2.00;2.00;;;;;27.68;37.07;101378.41;5031881;28;47501;-76
2022/06/28 13:51:54;;;;;;;;;1.00;1.00;;;;;27.70;36.94;101373.63;5031389;28;54707;-77
2022/06/28 13:54:19;;;;;;;;;3.00;2.00;;;;;27.72;36.83;101365.25;5023314;28;51303;-78
2022/06/28 13:56:44;;;;;;;;;3.00;2.67;;;;;27.73;36.91;101366.94;5024408;28;55707;-76
2022/06/28 13:59:09;;;;;;;;;2.00;2.00;;;;;27.75;36.75;101357.56;5031689;28;46427;-76
2022/06/28 14:01:35;;;;;;;;;2.00;1.00;;;;;27.75;36.71;101351.28;5044553;28;47995;-76
2022/06/28 14:04:00;;;;;;;;;2.00;1.00;;;;;27.75;37.34;101354.00;5031773;28;45424;-78
2022/06/28 14:06:26;;;;;;;;;3.00;1.67;;;;;27.78;36.89;101352.78;5027603;28;45531;-78
2022/06/28 14:08:51;;;;;;;;;2.00;2.00;;;;;27.80;36.88;101353.44;5029006;28;45923;-77
2022/06/28 14:11:16;;;;;;;;;1.67;1.67;;;;;27.81;37.02;101349.66;5024539;28;45789;-78
2022/06/28 14:13:42;;;;;;;;;2.00;2.00;;;;;27.81;36.32;101353.25;5031157;28;45948;-78
2022/06/28 14:16:07;;;;;;;;;1.00;1.00;;;;;27.82;36.91;101344.03;5033413;28;45615;-77
2022/06/28 14:18:33;;;;;;;;;1.33;1.33;;;;;27.83;36.38;101350.34;5021338;28;47053;-77
2022/06/28 14:20:58;;;;;;;;;1.00;1.00;;;;;27.84;36.34;101352.03;5026977;28;50759;-76
2022/06/28 14:23:24;;;;;;;;;2.67;1.00;;;;;27.84;36.93;101347.41;5030076;28;45550;-76
2022/06/28 14:25:49;;;;;;;;;3.00;1.33;;;;;27.84;36.53;101350.16;5026700;28;51168;-77
2022/06/28 14:28:15;;;;;;;;;2.00;2.00;;;;;27.84;36.88;101347.41;5023461;28;47083;-76
2022/06/28 14:30:42;;;;;;;;;1.00;1.00;;;;;27.85;36.44;101342.81;5026481;28;45808;-77
2022/06/28 14:33:09;;;;;;;;;1.33;1.33;;;;;27.87;36.30;101343.47;5027353;28;45442;-77
2022/06/28 14:35:36;;;;;;;;;1.00;1.00;;;;;27.86;36.92;101337.19;5023532;28;45539;-76
2022/06/28 14:38:03;;;;;;;;;1.00;1.00;;;;;27.87;37.05;101324.38;5034492;28;45434;-77
2022/06/28 14:40:31;;;;;;;;;3.00;1.00;;;;;27.90;36.22;101326.75;5034276;28;45327;-75
2022/06/28 14:42:56;;;;;;;;;1.00;1.00;;;;;27.90;36.61;101324.03;5036256;28;45415;-76
2022/06/28 14:45:21;;;;;;;;;2.00;2.00;;;;;27.91;36.31;101322.16;5031365;28;45572;-77
2022/06/28 14:47:49;;;;;;;;;1.00;1.00;;;;;27.91;36.85;101317.53;5034081;28;45983;-77
2022/06/28 14:50:15;;;;;;;;;2.67;1.00;;;;;27.91;36.40;101314.81;5031990;28;45429;-78
2022/06/28 14:52:41;;;;;;;;;1.00;1.00;;;;;27.92;37.02;101318.38;5034782;28;45598;-78
2022/06/28 14:55:06;;;;;;;;;3.00;1.00;;;;;27.91;36.14;101316.69;5036374;28;45396;-78
2022/06/28 14:57:32;;;;;;;;;1.33;1.33;;;;;27.90;36.29;101317.75;5029932;28;46231;-78
2022/06/28 14:59:58;;;;;;;;;2.33;2.00;;;;;27.87;36.71;101310.75;5031049;28;54087;-78
2022/06/28 15:02:24;;;;;;;;;1.00;1.00;;;;;27.85;36.76;101305.50;5034515;28;45897;-78
2022/06/28 15:04:49;;;;;;;;;2.00;2.00;;;;;27.85;36.23;101296.44;5031305;28;45827;-78
2022/06/28 15:07:15;;;;;;;;;3.00;2.00;;;;;27.83;36.78;101293.91;5026483;28;45770;-77
2022/06/28 15:09:40;;;;;;;;;1.00;1.00;;;;;27.81;36.26;101295.13;5030832;28;45849;-77
2022/06/28 15:12:06;;;;;;;;;3.00;2.00;;;;;27.80;36.18;101302.47;5033108;28;45312;-78
2022/06/28 15:14:31;;;;;;;;;4.67;1.33;;;;;27.79;36.69;101298.03;5029010;28;45482;-78
2022/06/28 15:16:57;;;;;;;;;2.00;1.33;;;;;27.77;36.29;101291.94;5021629;28;46008;-75
2022/06/28 15:19:23;;;;;;;;;1.00;1.00;;;;;27.75;36.30;101300.28;5026138;28;45472;-75
2022/06/28 15:32:44;;;;;;;;;4.00;2.67;;;;;27.81;36.34;101304.16;5023193;28;45719;-75
2022/06/28 15:35:09;;;;;;;;;2.00;1.00;;;;;27.82;36.28;101302.25;5024350;28;45807;-75
2022/06/28 15:37:35;;;;;;;;;0.00;0.00;;;;;27.85;36.43;101297.31;5034169;28;45519;-75
2022/06/28 15:40:00;;;;;;;;;2.00;2.00;;;;;27.86;36.33;101293.53;5026682;28;45472;-75
2022/06/28 15:42:25;;;;;;;;;4.00;2.00;;;;;27.87;36.55;101289.78;5023253;28;47184;-76
2022/06/28 15:44:51;;;;;;;;;0.00;0.00;;;;;27.87;36.35;101289.78;5030970;28;45474;-75
2022/06/28 15:47:16;;;;;;;;;1.67;1.67;;;;;27.86;36.66;101284.50;5032678;28;47260;-78
2022/06/28 15:49:42;;;;;;;;;1.00;1.00;;;;;27.86;36.83;101282.63;5034324;28;45545;-78
2022/06/28 15:52:08;;;;;;;;;2.33;1.00;;;;;27.86;36.62;101282.63;5035540;28;45472;-80
2022/06/28 15:54:33;;;;;;;;;1.00;1.00;;;;;27.88;36.34;101277.81;5034085;28;45756;-80
2022/06/28 15:56:58;;;;;;;;;0.67;0.67;;;;;27.89;36.35;101275.97;5031815;28;45446;-80
2022/06/28 15:59:24;;;;;;;;;1.67;1.67;;;;;27.91;36.84;101270.31;5035094;28;45424;-80
2022/06/28 16:01:49;;;;;;;;;1.00;1.00;;;;;27.91;36.27;101268.44;5033563;28;45375;-79
2022/06/28 16:04:14;;;;;;;;;3.00;2.00;;;;;27.91;36.44;101264.88;5035877;28;45391;-79
2022/06/28 16:06:40;;;;;;;;;1.00;1.00;;;;;27.90;36.83;101253.09;5029609;28;47046;-79
2022/06/28 16:09:06;;;;;;;;;1.00;1.00;;;;;27.88;36.78;101261.47;5034386;28;45376;-79
2022/06/28 16:11:32;;;;;;;;;3.67;1.00;;;;;27.88;36.65;101249.72;5027240;28;45551;-79
2022/06/28 16:13:57;;;;;;;;;1.00;1.00;;;;;27.87;36.58;101253.47;5033857;28;45565;-79
2022/06/28 16:16:22;;;;;;;;;1.00;1.00;;;;;27.87;36.20;101251.59;5035832;28;45388;-79
2022/06/28 16:18:48;;;;;;;;;1.00;1.00;;;;;27.85;36.91;101247.34;5033717;28;45363;-79
2022/06/28 16:21:13;;;;;;;;;2.00;2.00;;;;;27.84;36.19;101240.22;5027523;28;46107;-78
2022/06/28 16:23:39;;;;;;;;;0.67;0.33;;;;;27.82;36.42;101236.81;5022765;28;45804;-82
2022/06/28 16:26:04;;;;;;;;;1.33;1.33;;;;;27.79;37.21;101232.56;5022742;28;46865;-81
2022/06/28 16:28:29;;;;;;;;;0.33;0.33;;;;;27.64;36.90;101235.28;5027536;28;45398;-80
2022/06/28 16:30:54;;;;;;;;;1.00;1.00;;;;;27.12;37.95;101234.13;5019733;28;45400;-77
2022/06/28 16:33:21;;;;;;;;;1.00;1.00;;;;;26.66;39.00;101230.31;5024492;28;45657;-77
2022/06/28 16:35:47;;;;;;;;;2.00;2.00;;;;;26.27;39.21;101227.41;5025055;28;46018;-77
2022/06/28 16:38:12;;;;;;;;;0.00;0.00;;;;;26.01;40.36;101225.75;5029670;28;45497;-78
2022/06/28 16:40:37;;;;;;;;;1.67;1.00;;;;;25.80;40.76;101220.88;5027176;28;46556;-78
2022/06/28 16:43:03;;;;;;;;;1.00;1.00;;;;;25.65;41.36;101216.13;5028296;28;45437;-77
2022/06/28 16:45:29;;;;;;;;;1.00;1.00;;;;;25.53;41.59;101223.75;5028204;28;46262;-77
2022/06/28 16:47:55;;;;;;;;;0.00;0.00;;;;;25.44;42.14;101218.47;5027927;28;45320;-84
2022/06/28 16:50:21;;;;;;;;;1.00;1.00;;;;;25.37;41.86;101212.88;5030868;28;45598;-81
2022/06/28 16:52:46;;;;;;;;;1.67;1.67;;;;;25.23;41.88;101206.25;5031573;28;45616;-79
2022/06/28 16:55:13;;;;;;;;;1.00;1.00;;;;;25.17;42.05;101204.22;5028607;28;45388;-78
2022/06/28 16:57:39;;;;;;;;;1.00;1.00;;;;;25.10;41.78;101213.03;5031279;28;45619;-77
2022/06/28 17:00:06;;;;;;;;;2.00;2.00;;;;;25.03;41.82;101200.28;5027884;28;45598;-77
2022/06/28 17:02:31;;;;;;;;;1.00;1.00;;;;;24.99;41.55;101203.34;5028013;28;45609;-77
2022/06/28 17:04:57;;;;;;;;;1.00;1.00;;;;;24.97;42.08;101205.38;5022492;28;60440;-78
2022/06/28 17:07:25;;;;;;;;;1.00;1.00;;;;;24.94;42.22;101202.16;5022538;28;45514;-78
2022/06/28 17:09:54;;;;;;;;;1.00;1.00;;;;;24.94;42.57;101205.72;5030812;28;45569;-77
2022/06/28 17:12:21;;;;;;;;;2.00;1.00;;;;;24.92;42.21;101202.31;5031495;28;45556;-79
2022/06/28 17:14:48;;;;;;;;;3.00;2.67;;;;;24.94;42.24;101196.72;5024511;28;45424;-77
2022/06/28 17:17:13;;;;;;;;;2.67;2.67;;;;;24.94;42.43;101207.59;5030410;28;45617;-80
2022/06/28 17:19:39;;;;;;;;;1.33;1.33;;;;;24.91;42.48;101202.47;5029938;28;45490;-77
2022/06/28 17:22:05;;;;;;;;;1.67;1.67;;;;;24.88;42.45;101200.09;5029898;28;45498;-78
2022/06/28 17:24:30;;;;;;;;;3.00;3.00;;;;;24.83;42.64;101196.03;5038552;28;45689;-79
2022/06/28 17:26:56;;;;;;;;;1.00;1.00;;;;;24.84;42.84;101202.28;5033446;28;46293;-81
2022/06/28 17:29:22;;;;;;;;;5.67;3.67;;;;;24.88;42.75;101202.81;5028609;28;45815;-82
2022/06/28 17:31:47;;;;;;;;;3.00;2.00;;;;;25.10;42.39;101195.91;5026502;28;45515;-82
2022/06/28 17:34:12;;;;;;;;;1.67;1.67;;;;;25.35;42.15;101195.91;5028204;28;46094;-82
2022/06/28 17:36:37;;;;;;;;;1.67;1.67;;;;;25.60;41.79;101193.19;5017287;28;45826;-82
2022/06/28 17:39:04;;;;;;;;;4.00;2.00;;;;;25.83;41.58;101187.03;5018083;28;45562;-81
2022/06/28 17:41:29;;;;;;;;;2.33;1.33;;;;;26.03;41.24;101193.78;5018584;28;46182;-81
2022/06/28 17:43:55;;;;;;;;;1.33;1.33;;;;;26.22;40.88;101191.69;5033792;28;46302;-81
2022/06/28 17:46:21;;;;;;;;;1.00;1.00;;;;;26.40;40.15;101201.50;5031982;28;45559;-82
2022/06/28 17:48:46;;;;;;;;;2.00;2.00;;;;;26.54;40.01;101186.28;5029225;28;45407;-80
2022/06/28 17:51:12;;;;;;;;;2.00;1.00;;;;;26.66;40.21;101190.31;5029585;28;45354;-83
2022/06/28 17:53:37;;;;;;;;;1.00;1.00;;;;;26.79;39.42;101197.03;5024987;28;52599;-81
2022/06/28 17:56:03;;;;;;;;;1.33;1.33;;;;;26.89;39.47;101192.19;5020216;28;48000;-81